Ellenville, New York
Current Conditions -  °F | °C
As of 11:54 AM on Thursday 23 Oct 2014 (Local Time) from KMGJ Reporting Station
Light Rain Light Rain  
Wind Chill: 10°   Ceiling: 4300
Heat Index: 10°   Visibility: 7mi
Dew Point:   Wind: 5mph
Humidity: 89%   Direction: 20°NNE
Pressure: 29.75"   Gusts: NA
Location:  41.72°N, 74.4°W
Report Text: KMGJ 231554Z AUTO 02004KT 7SM -RA FEW028 SCT033 OVC043 10/08 A2975 RMK AO2 RAB06 SLP075 P0003 T01000083 TSNO
Loading
Personal Weather Stations






























Interactive Weather Map
Tropical Storm Tracking
New forecast layout! Learn more

10-Day Weather Forecast

Advertisements
Track Severe Weather on mobile